sensor_id;sensor_type;location;lat;lon;timestamp;pressure;altitude;pressure_sealevel;temperature
61189;BMP280;47054;39.716;2.904;2023-07-13T00:02:16;100224.44;;;32.17
61189;BMP280;47054;39.716;2.904;2023-07-13T00:05:02;100234.63;;;32.17
61189;BMP280;47054;39.716;2.904;2023-07-13T00:07:47;100238.63;;;32.16
61189;BMP280;47054;39.716;2.904;2023-07-13T00:10:32;100240.63;;;32.15
61189;BMP280;47054;39.716;2.904;2023-07-13T00:13:17;100240.63;;;32.15
61189;BMP280;47054;39.716;2.904;2023-07-13T00:16:01;100238.31;;;32.14
61189;BMP280;47054;39.716;2.904;2023-07-13T00:18:46;100234.09;;;32.13
61189;BMP280;47054;39.716;2.904;2023-07-13T00:21:31;100241.84;;;32.14
61189;BMP280;47054;39.716;2.904;2023-07-13T00:24:18;100243.09;;;32.13
61189;BMP280;47054;39.716;2.904;2023-07-13T00:27:08;100241.28;;;32.10
61189;BMP280;47054;39.716;2.904;2023-07-13T00:29:53;100248.28;;;32.11
61189;BMP280;47054;39.716;2.904;2023-07-13T00:32:38;100244.03;;;32.10
61189;BMP280;47054;39.716;2.904;2023-07-13T00:35:22;100245.25;;;32.09
61189;BMP280;47054;39.716;2.904;2023-07-13T00:38:10;100244.97;;;32.07
61189;BMP280;47054;39.716;2.904;2023-07-13T00:40:55;100251.66;;;32.06
61189;BMP280;47054;39.716;2.904;2023-07-13T00:43:40;100247.91;;;32.04
61189;BMP280;47054;39.716;2.904;2023-07-13T00:46:30;100244.59;;;32.00
61189;BMP280;47054;39.716;2.904;2023-07-13T00:49:19;100252.34;;;32.01
61189;BMP280;47054;39.716;2.904;2023-07-13T00:52:09;100243.81;;;31.99
61189;BMP280;47054;39.716;2.904;2023-07-13T00:54:54;100254.22;;;31.95
61189;BMP280;47054;39.716;2.904;2023-07-13T00:57:40;100259.69;;;31.95
61189;BMP280;47054;39.716;2.904;2023-07-13T01:00:27;100252.72;;;31.94
61189;BMP280;47054;39.716;2.904;2023-07-13T01:03:12;100259.44;;;31.93
61189;BMP280;47054;39.716;2.904;2023-07-13T01:05:57;100260.38;;;31.90
61189;BMP280;47054;39.716;2.904;2023-07-13T01:08:42;100252.63;;;31.89
61189;BMP280;47054;39.716;2.904;2023-07-13T01:11:29;100250.66;;;31.89
61189;BMP280;47054;39.716;2.904;2023-07-13T01:14:15;100253.13;;;31.87
61189;BMP280;47054;39.716;2.904;2023-07-13T01:17:01;100266.06;;;31.87
61189;BMP280;47054;39.716;2.904;2023-07-13T01:19:47;100254.78;;;31.85
61189;BMP280;47054;39.716;2.904;2023-07-13T01:22:31;100252.53;;;31.83
61189;BMP280;47054;39.716;2.904;2023-07-13T01:25:17;100222.72;;;31.62
61189;BMP280;47054;39.716;2.904;2023-07-13T01:28:04;100257.25;;;31.83
61189;BMP280;47054;39.716;2.904;2023-07-13T01:30:49;100255.75;;;31.82
61189;BMP280;47054;39.716;2.904;2023-07-13T01:33:34;100251.97;;;31.79
61189;BMP280;47054;39.716;2.904;2023-07-13T01:36:18;100250.72;;;31.80
61189;BMP280;47054;39.716;2.904;2023-07-13T01:39:05;100262.16;;;31.79
61189;BMP280;47054;39.716;2.904;2023-07-13T01:41:50;100260.63;;;31.78
61189;BMP280;47054;39.716;2.904;2023-07-13T01:44:38;100253.34;;;31.75
61189;BMP280;47054;39.716;2.904;2023-07-13T01:47:23;100261.88;;;31.77
61189;BMP280;47054;39.716;2.904;2023-07-13T01:50:08;100262.34;;;31.75
61189;BMP280;47054;39.716;2.904;2023-07-13T01:52:53;100264.31;;;31.75
61189;BMP280;47054;39.716;2.904;2023-07-13T01:55:38;100262.34;;;31.75
61189;BMP280;47054;39.716;2.904;2023-07-13T01:58:23;100261.56;;;31.75
61189;BMP280;47054;39.716;2.904;2023-07-13T02:01:08;100252.81;;;31.71
61189;BMP280;47054;39.716;2.904;2023-07-13T02:03:52;100255.81;;;31.73
61189;BMP280;47054;39.716;2.904;2023-07-13T02:06:39;100272.28;;;31.73
61189;BMP280;47054;39.716;2.904;2023-07-13T02:09:23;100261.03;;;31.71
61189;BMP280;47054;39.716;2.904;2023-07-13T02:12:08;100256.47;;;31.68
61189;BMP280;47054;39.716;2.904;2023-07-13T02:14:53;100257.25;;;31.68
61189;BMP280;47054;39.716;2.904;2023-07-13T02:17:37;100263.66;;;31.65
61189;BMP280;47054;39.716;2.904;2023-07-13T02:20:22;100270.34;;;31.64
61189;BMP280;47054;39.716;2.904;2023-07-13T02:23:07;100273.59;;;31.63
61189;BMP280;47054;39.716;2.904;2023-07-13T02:26:01;100270.09;;;31.62
61189;BMP280;47054;39.716;2.904;2023-07-13T02:28:47;100273.00;;;31.59
61189;BMP280;47054;39.716;2.904;2023-07-13T02:31:31;100265.25;;;31.57
61189;BMP280;47054;39.716;2.904;2023-07-13T02:34:16;100272.44;;;31.55
61189;BMP280;47054;39.716;2.904;2023-07-13T02:37:01;100263.91;;;31.53
61189;BMP280;47054;39.716;2.904;2023-07-13T02:39:46;100268.66;;;31.52
61189;BMP280;47054;39.716;2.904;2023-07-13T02:42:32;100267.63;;;31.50
61189;BMP280;47054;39.716;2.904;2023-07-13T02:45:19;100272.78;;;31.48
61189;BMP280;47054;39.716;2.904;2023-07-13T02:48:03;100277.97;;;31.46
61189;BMP280;47054;39.716;2.904;2023-07-13T02:50:48;100281.19;;;31.44
61189;BMP280;47054;39.716;2.904;2023-07-13T02:53:33;100266.88;;;31.40
61189;BMP280;47054;39.716;2.904;2023-07-13T02:56:22;100274.66;;;31.42
61189;BMP280;47054;39.716;2.904;2023-07-13T02:59:07;100240.78;;;31.30
61189;BMP280;47054;39.716;2.904;2023-07-13T03:01:52;100266.88;;;31.40
61189;BMP280;47054;39.716;2.904;2023-07-13T03:04:37;100257.16;;;31.39
61189;BMP280;47054;39.716;2.904;2023-07-13T03:07:22;100250.19;;;31.38
61189;BMP280;47054;39.716;2.904;2023-07-13T03:10:10;100256.09;;;31.37
61189;BMP280;47054;39.716;2.904;2023-07-13T03:13:01;100258.13;;;31.36
61189;BMP280;47054;39.716;2.904;2023-07-13T03:15:48;100258.56;;;31.35
61189;BMP280;47054;39.716;2.904;2023-07-13T03:18:33;100258.28;;;31.33
61189;BMP280;47054;39.716;2.904;2023-07-13T03:21:21;100259.50;;;31.32
61189;BMP280;47054;39.716;2.904;2023-07-13T03:24:06;100259.97;;;31.30
61189;BMP280;47054;39.716;2.904;2023-07-13T03:26:51;100257.41;;;31.27
61189;BMP280;47054;39.716;2.904;2023-07-13T03:29:37;100263.38;;;31.25
61189;BMP280;47054;39.716;2.904;2023-07-13T03:32:22;100259.09;;;31.24
61189;BMP280;47054;39.716;2.904;2023-07-13T03:35:08;100245.28;;;31.19
61189;BMP280;47054;39.716;2.904;2023-07-13T03:37:54;100264.00;;;31.20
61189;BMP280;47054;39.716;2.904;2023-07-13T03:40:39;100267.22;;;31.19
61189;BMP280;47054;39.716;2.904;2023-07-13T03:43:24;100261.91;;;31.15
61189;BMP280;47054;39.716;2.904;2023-07-13T03:46:10;100271.34;;;31.14
61189;BMP280;47054;39.716;2.904;2023-07-13T03:48:56;100273.78;;;31.12
61189;BMP280;47054;39.716;2.904;2023-07-13T03:51:41;100275.78;;;31.12
61189;BMP280;47054;39.716;2.904;2023-07-13T03:54:26;100269.53;;;31.11
61189;BMP280;47054;39.716;2.904;2023-07-13T03:57:11;100267.25;;;31.10
61189;BMP280;47054;39.716;2.904;2023-07-13T03:59:56;100263.03;;;31.09
61189;BMP280;47054;39.716;2.904;2023-07-13T04:02:41;100267.44;;;31.06
61189;BMP280;47054;39.716;2.904;2023-07-13T04:05:26;100281.13;;;31.06
61189;BMP280;47054;39.716;2.904;2023-07-13T04:08:10;100294.06;;;31.06
61189;BMP280;47054;39.716;2.904;2023-07-13T04:10:56;100291.47;;;31.02
61189;BMP280;47054;39.716;2.904;2023-07-13T04:13:41;100299.69;;;31.02
61189;BMP280;47054;39.716;2.904;2023-07-13T04:16:26;100304.13;;;31.00
61189;BMP280;47054;39.716;2.904;2023-07-13T04:19:10;100288.19;;;30.98
61189;BMP280;47054;39.716;2.904;2023-07-13T04:21:55;100292.13;;;30.97
61189;BMP280;47054;39.716;2.904;2023-07-13T04:24:40;100294.56;;;30.95
61189;BMP280;47054;39.716;2.904;2023-07-13T04:27:25;100291.53;;;30.93
61189;BMP280;47054;39.716;2.904;2023-07-13T04:30:10;100283.50;;;30.90
61189;BMP280;47054;39.716;2.904;2023-07-13T19:28:55;100477.78;;;30.39
61189;BMP280;47054;39.716;2.904;2023-07-13T19:31:40;100486.31;;;30.68
61189;BMP280;47054;39.716;2.904;2023-07-13T19:34:26;100486.91;;;30.90
61189;BMP280;47054;39.716;2.904;2023-07-13T19:40:04;100487.56;;;31.18
61189;BMP280;47054;39.716;2.904;2023-07-13T19:42:50;100491.22;;;31.24
61189;BMP280;47054;39.716;2.904;2023-07-13T19:45:34;100492.41;;;31.32
61189;BMP280;47054;39.716;2.904;2023-07-13T19:48:19;100492.84;;;31.39
61189;BMP280;47054;39.716;2.904;2023-07-13T19:51:04;100491.75;;;31.46
61189;BMP280;47054;39.716;2.904;2023-07-13T19:53:56;100502.06;;;31.51
61189;BMP280;47054;39.716;2.904;2023-07-13T19:56:43;100512.09;;;31.54
61189;BMP280;47054;39.716;2.904;2023-07-13T19:59:32;100509.97;;;31.58
61189;BMP280;47054;39.716;2.904;2023-07-13T20:02:18;100495.97;;;31.56
61189;BMP280;47054;39.716;2.904;2023-07-13T20:05:03;100502.81;;;31.60
61189;BMP280;47054;39.716;2.904;2023-07-13T20:07:58;100508.13;;;31.64
61189;BMP280;47054;39.716;2.904;2023-07-13T20:10:43;100511.59;;;31.64
61189;BMP280;47054;39.716;2.904;2023-07-13T20:13:28;100509.16;;;31.66
61189;BMP280;47054;39.716;2.904;2023-07-13T20:16:16;100517.69;;;31.68
61189;BMP280;47054;39.716;2.904;2023-07-13T20:19:01;100513.72;;;31.69
61189;BMP280;47054;39.716;2.904;2023-07-13T20:21:47;100521.19;;;31.69
61189;BMP280;47054;39.716;2.904;2023-07-13T20:24:31;100530.63;;;31.68
61189;BMP280;47054;39.716;2.904;2023-07-13T20:27:16;100524.41;;;31.67
61189;BMP280;47054;39.716;2.904;2023-07-13T20:30:01;100531.09;;;31.66
61189;BMP280;47054;39.716;2.904;2023-07-13T20:32:47;100538.28;;;31.64
61189;BMP280;47054;39.716;2.904;2023-07-13T20:35:33;100533.41;;;31.59
61189;BMP280;47054;39.716;2.904;2023-07-13T20:38:19;100533.59;;;31.55
61189;BMP280;47054;39.716;2.904;2023-07-13T20:41:04;100536.78;;;31.54
61189;BMP280;47054;39.716;2.904;2023-07-13T20:43:48;100535.72;;;31.51
61189;BMP280;47054;39.716;2.904;2023-07-13T20:46:33;100539.66;;;31.50
61189;BMP280;47054;39.716;2.904;2023-07-13T20:49:19;100541.22;;;31.51
61189;BMP280;47054;39.716;2.904;2023-07-13T20:52:11;100545.16;;;31.50
61189;BMP280;47054;39.716;2.904;2023-07-13T20:54:57;100541.69;;;31.50
61189;BMP280;47054;39.716;2.904;2023-07-13T20:57:42;100548.38;;;31.49
61189;BMP280;47054;39.716;2.904;2023-07-13T21:00:28;100549.59;;;31.48
61189;BMP280;47054;39.716;2.904;2023-07-13T21:03:19;100548.38;;;31.49
61189;BMP280;47054;39.716;2.904;2023-07-13T21:06:10;100548.38;;;31.49
61189;BMP280;47054;39.716;2.904;2023-07-13T21:08:57;100556.19;;;31.41
61189;BMP280;47054;39.716;2.904;2023-07-13T21:11:42;100551.63;;;31.38
61189;BMP280;47054;39.716;2.904;2023-07-13T21:14:27;100553.13;;;31.39
61189;BMP280;47054;39.716;2.904;2023-07-13T21:17:12;100563.00;;;31.37
61189;BMP280;47054;39.716;2.904;2023-07-13T21:19:57;100559.56;;;31.36
61189;BMP280;47054;39.716;2.904;2023-07-13T21:22:42;100563.78;;;31.37
61189;BMP280;47054;39.716;2.904;2023-07-13T21:25:34;100552.38;;;31.39
61189;BMP280;47054;39.716;2.904;2023-07-13T21:28:20;100554.50;;;31.35
61189;BMP280;47054;39.716;2.904;2023-07-13T21:31:19;100565.47;;;31.35
61189;BMP280;47054;39.716;2.904;2023-07-13T21:34:17;100564.69;;;31.34
61189;BMP280;47054;39.716;2.904;2023-07-13T21:37:03;100549.78;;;31.26
61189;BMP280;47054;39.716;2.904;2023-07-13T21:39:52;100549.78;;;31.26
61189;BMP280;47054;39.716;2.904;2023-07-13T21:42:36;100544.97;;;31.21
61189;BMP280;47054;39.716;2.904;2023-07-13T21:45:26;100547.97;;;31.23
61189;BMP280;47054;39.716;2.904;2023-07-13T21:48:11;100546.94;;;31.21
61189;BMP280;47054;39.716;2.904;2023-07-13T21:50:56;100544.97;;;31.21
61189;BMP280;47054;39.716;2.904;2023-07-13T21:53:43;100542.69;;;31.20
61189;BMP280;47054;39.716;2.904;2023-07-13T21:56:28;100541.63;;;31.17
61189;BMP280;47054;39.716;2.904;2023-07-13T22:02:11;100533.88;;;31.16
61189;BMP280;47054;39.716;2.904;2023-07-13T22:04:57;100543.47;;;31.11
61189;BMP280;47054;39.716;2.904;2023-07-13T22:07:43;100547.59;;;31.07
61189;BMP280;47054;39.716;2.904;2023-07-13T22:10:28;100546.19;;;31.02
61189;BMP280;47054;39.716;2.904;2023-07-13T22:13:12;100545.91;;;31.00
61189;BMP280;47054;39.716;2.904;2023-07-13T22:15:58;100544.84;;;30.98
61189;BMP280;47054;39.716;2.904;2023-07-13T22:18:43;100550.47;;;30.94
61189;BMP280;47054;39.716;2.904;2023-07-13T22:21:29;100550.63;;;30.91
61189;BMP280;47054;39.716;2.904;2023-07-13T22:24:19;100545.59;;;30.89
61189;BMP280;47054;39.716;2.904;2023-07-13T22:27:10;100556.28;;;30.87
61189;BMP280;47054;39.716;2.904;2023-07-13T22:29:58;100543.94;;;30.83
61189;BMP280;47054;39.716;2.904;2023-07-13T22:32:43;100542.41;;;30.82
61189;BMP280;47054;39.716;2.904;2023-07-13T22:35:28;100540.59;;;30.78
61189;BMP280;47054;39.716;2.904;2023-07-13T22:38:18;100544.56;;;30.77
61189;BMP280;47054;39.716;2.904;2023-07-13T22:41:03;100538.91;;;30.72
61189;BMP280;47054;39.716;2.904;2023-07-13T22:43:48;100533.16;;;30.70
61189;BMP280;47054;39.716;2.904;2023-07-13T22:46:33;100532.53;;;30.66
61189;BMP280;47054;39.716;2.904;2023-07-13T22:49:21;100531.94;;;30.62
61189;BMP280;47054;39.716;2.904;2023-07-13T22:52:11;100537.53;;;30.58
61189;BMP280;47054;39.716;2.904;2023-07-13T22:54:55;100540.44;;;30.55
61189;BMP280;47054;39.716;2.904;2023-07-13T22:57:42;100534.66;;;30.53
61189;BMP280;47054;39.716;2.904;2023-07-13T23:00:32;100534.81;;;30.49
61189;BMP280;47054;39.716;2.904;2023-07-13T23:03:17;100530.25;;;30.46
61189;BMP280;47054;39.716;2.904;2023-07-13T23:06:02;100533.44;;;30.45
61189;BMP280;47054;39.716;2.904;2023-07-13T23:08:48;100524.59;;;30.41
61189;BMP280;47054;39.716;2.904;2023-07-13T23:11:33;100527.50;;;30.37
61189;BMP280;47054;39.716;2.904;2023-07-13T23:14:18;100529.94;;;30.35
61189;BMP280;47054;39.716;2.904;2023-07-13T23:17:02;100522.16;;;30.34
61189;BMP280;47054;39.716;2.904;2023-07-13T23:19:47;100516.06;;;30.30
61189;BMP280;47054;39.716;2.904;2023-07-13T23:22:32;100524.44;;;30.26
61189;BMP280;47054;39.716;2.904;2023-07-13T23:25:17;100516.69;;;30.25
61189;BMP280;47054;39.716;2.904;2023-07-13T23:28:03;100518.81;;;30.21
61189;BMP280;47054;39.716;2.904;2023-07-13T23:30:49;100520.16;;;30.16
61189;BMP280;47054;39.716;2.904;2023-07-13T23:33:34;100519.53;;;30.12
61189;BMP280;47054;39.716;2.904;2023-07-13T23:36:19;100513.47;;;30.08
61189;BMP280;47054;39.716;2.904;2023-07-13T23:39:09;100520.13;;;30.07
61189;BMP280;47054;39.716;2.904;2023-07-13T23:41:55;100504.31;;;30.02
61189;BMP280;47054;39.716;2.904;2023-07-13T23:44:40;100518.47;;;30.01
61189;BMP280;47054;39.716;2.904;2023-07-13T23:47:24;100513.91;;;29.98
61189;BMP280;47054;39.716;2.904;2023-07-13T23:50:17;100502.19;;;29.97
61189;BMP280;47054;39.716;2.904;2023-07-13T23:53:02;100502.34;;;29.94
61189;BMP280;47054;39.716;2.904;2023-07-13T23:55:47;100502.78;;;29.92
61189;BMP280;47054;39.716;2.904;2023-07-13T23:58:31;100498.53;;;29.91
